Terminal Aerodrome Forecast
Issued by NWS

Home | Current Version | Previous Version | Text Only | Print | Product List | Glossary On
Versions: 1 2 3 4 5 6 7 8 9 10 11 12 13 14 15 16 17 18 19
000
FTUS44 KHGX 270521
TAFUTS
TAF
KUTS 270521Z 2706/2806 15008G17KT P6SM SCT017 BKN080
      TEMPO 2706/2707 BKN018 OVC040
     FM270700 16009KT P6SM VCSH BKN015 OVC028
     FM271100 17006KT P6SM OVC015
     FM271500 18009KT P6SM SCT015 BKN025
      TEMPO 2720/2724 BKN035
     FM280300 18007KT P6SM BKN025=

USA.gov is the U.S. government's official web portal to all federal, state and local government web resources and services.